createdAt,value
2022-10-07T00:01:16.685Z,22.03
2022-10-07T00:03:45.094Z,22.04
2022-10-07T00:06:17.639Z,22.03
2022-10-07T00:08:47.734Z,22.04
2022-10-07T00:11:17.785Z,22.05
2022-10-07T00:13:47.801Z,22.04
2022-10-07T00:16:17.869Z,22.02
2022-10-07T00:18:46.393Z,22.03
2022-10-07T00:21:18.243Z,22.02
2022-10-07T00:23:48.312Z,22.01
2022-10-07T00:26:18.918Z,22.01
2022-10-07T00:28:47.676Z,22.01
2022-10-07T00:31:18.428Z,22.00
2022-10-07T00:33:47.438Z,21.99
2022-10-07T00:36:20.271Z,22.00
2022-10-07T00:38:52.031Z,21.99
2022-10-07T00:41:22.190Z,21.99
2022-10-07T00:43:50.760Z,21.99
2022-10-07T00:46:29.687Z,21.99
2022-10-07T00:49:02.337Z,21.98
2022-10-07T00:51:35.558Z,22.00
2022-10-07T00:54:07.268Z,22.01
2022-10-07T00:56:36.670Z,22.02
2022-10-07T00:59:05.681Z,22.01
2022-10-07T01:01:35.527Z,22.01
2022-10-07T01:04:04.454Z,21.99
2022-10-07T01:06:34.894Z,22.00
2022-10-07T01:09:03.287Z,21.98
2022-10-07T01:11:43.914Z,21.99
2022-10-07T01:14:22.120Z,22.00
2022-10-07T01:17:00.654Z,21.98
2022-10-07T01:19:47.134Z,21.96
2022-10-07T01:22:31.198Z,21.96
2022-10-07T01:25:15.116Z,21.96
2022-10-07T01:27:51.633Z,21.98
2022-10-07T01:30:20.728Z,21.96
2022-10-07T01:32:54.447Z,21.96
2022-10-07T01:35:26.621Z,21.95
2022-10-07T01:38:01.800Z,21.94
2022-10-07T01:40:35.829Z,21.95
2022-10-07T01:43:07.282Z,21.95
2022-10-07T01:45:41.757Z,21.96
2022-10-07T01:48:11.409Z,21.98
2022-10-07T01:50:40.411Z,21.98
2022-10-07T01:53:33.035Z,21.99
2022-10-07T01:56:13.093Z,21.97
2022-10-07T01:59:05.862Z,21.95
2022-10-07T02:01:44.906Z,21.96
2022-10-07T02:04:34.161Z,21.94
2022-10-07T02:07:16.244Z,21.94
2022-10-07T02:09:50.754Z,21.96
2022-10-07T02:12:24.955Z,21.96
2022-10-07T02:15:02.803Z,21.96
2022-10-07T02:17:35.360Z,21.94
2022-10-07T02:20:06.824Z,21.95
2022-10-07T02:22:37.178Z,21.94
2022-10-07T02:25:07.147Z,21.92
2022-10-07T02:27:39.792Z,21.91
2022-10-07T02:30:13.731Z,21.93
2022-10-07T02:32:46.143Z,21.93
2022-10-07T02:35:20.065Z,21.93
2022-10-07T02:37:52.279Z,21.95
2022-10-07T02:40:23.288Z,21.96
2022-10-07T02:42:58.338Z,21.96
2022-10-07T02:45:33.666Z,21.97
2022-10-07T02:48:07.891Z,21.98
2022-10-07T02:50:41.248Z,21.96
2022-10-07T02:53:12.928Z,21.96
2022-10-07T02:55:44.242Z,21.96
2022-10-07T02:58:15.034Z,21.95
2022-10-07T03:00:53.037Z,21.93
2022-10-07T03:03:23.396Z,21.92
2022-10-07T03:05:59.031Z,21.94
2022-10-07T03:08:28.319Z,21.93
2022-10-07T03:10:57.420Z,21.91
2022-10-07T03:13:26.460Z,21.90
2022-10-07T03:16:00.792Z,21.89
2022-10-07T03:18:30.701Z,21.93
2022-10-07T03:21:09.894Z,21.99
2022-10-07T03:23:38.846Z,21.98
2022-10-07T03:26:07.497Z,21.98
2022-10-07T03:28:37.797Z,22.00
2022-10-07T03:31:10.219Z,21.99
2022-10-07T03:33:42.904Z,22.00
2022-10-07T03:36:11.555Z,22.05
2022-10-07T03:38:42.559Z,22.06
2022-10-07T03:41:12.351Z,22.05
2022-10-07T03:43:41.000Z,22.05
2022-10-07T03:46:12.559Z,22.03
2022-10-07T03:48:41.917Z,22.03
2022-10-07T03:51:10.300Z,22.03
2022-10-07T03:53:40.775Z,22.05
2022-10-07T03:56:09.372Z,22.08
2022-10-07T03:58:39.515Z,22.06
2022-10-07T04:01:15.271Z,22.04
2022-10-07T04:03:57.300Z,22.05
2022-10-07T04:06:26.400Z,22.04
2022-10-07T04:08:56.441Z,22.05
2022-10-07T04:11:25.288Z,22.06
2022-10-07T04:13:56.535Z,22.06
2022-10-07T04:16:29.135Z,22.07
2022-10-07T04:18:58.548Z,22.06
2022-10-07T04:21:28.817Z,22.07
2022-10-07T04:23:57.238Z,22.07
2022-10-07T04:26:25.572Z,22.07
2022-10-07T04:28:53.914Z,22.07
2022-10-07T04:31:24.632Z,22.06
2022-10-07T04:34:00.404Z,22.06
2022-10-07T04:36:35.288Z,22.06
2022-10-07T04:39:06.948Z,22.04
2022-10-07T04:41:56.019Z,22.05
2022-10-07T04:44:30.177Z,22.05
2022-10-07T04:47:07.616Z,22.05
2022-10-07T04:49:40.527Z,22.06
2022-10-07T04:52:10.830Z,22.06
2022-10-07T04:54:42.001Z,22.08
2022-10-07T04:57:13.896Z,22.07
2022-10-07T04:59:43.999Z,22.06
2022-10-07T05:02:16.510Z,22.07
2022-10-07T05:04:48.260Z,22.09
2022-10-07T05:07:18.671Z,22.09
2022-10-07T05:09:47.304Z,22.10
2022-10-07T05:12:17.888Z,22.12
2022-10-07T05:14:46.566Z,22.12
2022-10-07T05:17:17.183Z,22.11
2022-10-07T05:19:45.577Z,22.10
2022-10-07T05:22:15.496Z,22.10
2022-10-07T05:24:44.035Z,22.09
2022-10-07T05:27:14.333Z,22.09
2022-10-07T05:29:42.759Z,22.08
2022-10-07T05:32:11.312Z,22.08
2022-10-07T05:34:40.228Z,22.07
2022-10-07T05:37:08.722Z,22.08
2022-10-07T05:39:38.626Z,22.08
2022-10-07T05:42:13.953Z,22.07
2022-10-07T05:44:52.948Z,22.07
2022-10-07T05:47:22.190Z,22.08
2022-10-07T05:49:58.494Z,22.08
2022-10-07T05:52:27.563Z,22.08
2022-10-07T05:54:58.013Z,22.09
2022-10-07T05:57:27.286Z,22.10
2022-10-07T05:59:57.102Z,22.10
2022-10-07T06:02:25.953Z,22.11
2022-10-07T06:04:54.761Z,22.12
2022-10-07T06:07:28.910Z,22.11
2022-10-07T06:10:17.945Z,22.11
2022-10-07T06:13:04.204Z,22.09
2022-10-07T06:15:33.921Z,22.10
2022-10-07T06:18:02.688Z,22.14
2022-10-07T06:20:31.107Z,22.14
2022-10-07T06:23:00.614Z,22.13
2022-10-07T06:25:31.230Z,22.11
2022-10-07T06:28:01.184Z,22.13
2022-10-07T06:30:31.450Z,22.17
2022-10-07T06:33:02.766Z,22.19
2022-10-07T06:35:31.581Z,22.19
2022-10-07T06:37:59.982Z,22.19
2022-10-07T06:40:28.396Z,22.20
2022-10-07T06:42:58.105Z,22.18
2022-10-07T06:45:33.067Z,22.19
2022-10-07T06:48:02.769Z,22.18
2022-10-07T06:50:32.741Z,22.19
2022-10-07T06:53:02.359Z,22.21
2022-10-07T06:55:34.429Z,22.22
2022-10-07T06:58:10.597Z,22.18
2022-10-07T07:00:41.512Z,22.16
2022-10-07T07:03:10.563Z,22.14
2022-10-07T07:05:44.421Z,22.12
2022-10-07T07:08:17.790Z,22.13
2022-10-07T07:10:47.117Z,22.13
2022-10-07T07:13:18.244Z,22.11
2022-10-07T07:15:56.180Z,22.09
2022-10-07T07:18:26.292Z,22.09
2022-10-07T07:20:55.299Z,22.10
2022-10-07T07:23:28.513Z,22.10
2022-10-07T07:25:57.518Z,22.09
2022-10-07T07:28:27.528Z,22.09
2022-10-07T07:30:56.908Z,22.10
2022-10-07T07:33:25.350Z,22.09
2022-10-07T07:35:54.821Z,22.08
2022-10-07T07:38:25.603Z,22.10
2022-10-07T07:40:56.071Z,22.09
2022-10-07T07:43:24.391Z,22.10
2022-10-07T07:45:55.631Z,22.10
2022-10-07T07:48:23.975Z,22.11
2022-10-07T07:50:53.042Z,22.10
2022-10-07T07:53:23.024Z,22.11
2022-10-07T07:55:55.595Z,22.10
2022-10-07T07:58:25.810Z,22.10
2022-10-07T08:01:03.974Z,22.09
2022-10-07T08:03:32.819Z,22.09
2022-10-07T08:06:02.275Z,22.08
2022-10-07T08:08:32.312Z,22.08
2022-10-07T08:11:08.226Z,22.08
2022-10-07T08:13:39.352Z,22.08
2022-10-07T08:16:13.488Z,22.08
2022-10-07T08:18:45.980Z,22.08
2022-10-07T08:21:16.261Z,22.15
2022-10-07T08:23:46.054Z,22.18
2022-10-07T08:26:15.203Z,22.21
2022-10-07T08:28:43.763Z,22.22
2022-10-07T08:31:15.552Z,22.23
2022-10-07T08:33:45.678Z,22.22
2022-10-07T08:36:15.697Z,22.23
2022-10-07T08:38:48.078Z,22.24
2022-10-07T08:41:36.686Z,22.24
2022-10-07T08:44:17.806Z,22.25
2022-10-07T08:46:57.397Z,22.27
2022-10-07T08:49:32.494Z,22.30
2022-10-07T08:52:06.897Z,22.31
2022-10-07T08:54:35.398Z,22.33
2022-10-07T08:57:11.511Z,22.35
2022-10-07T08:59:48.026Z,22.35
2022-10-07T09:02:29.952Z,22.36
2022-10-07T09:05:06.412Z,22.37
2022-10-07T09:07:38.150Z,22.38
2022-10-07T09:10:22.698Z,22.39
2022-10-07T09:12:59.212Z,22.39
2022-10-07T09:15:38.350Z,22.42
2022-10-07T09:18:17.986Z,22.42
2022-10-07T09:20:52.134Z,22.42
2022-10-07T09:23:23.037Z,22.43
2022-10-07T09:25:52.530Z,22.45
2022-10-07T09:28:22.842Z,22.44
2022-10-07T09:30:51.231Z,22.43
2022-10-07T09:33:25.074Z,22.44
2022-10-07T09:35:57.586Z,22.42
2022-10-07T09:38:36.105Z,22.42
2022-10-07T09:41:17.302Z,22.42
2022-10-07T09:43:57.702Z,22.39
2022-10-07T09:46:40.509Z,22.39
2022-10-07T09:49:31.071Z,22.37
2022-10-07T09:52:00.925Z,22.36
2022-10-07T09:54:31.506Z,22.37
2022-10-07T09:57:01.793Z,22.39
2022-10-07T09:59:33.781Z,22.40
2022-10-07T10:02:12.713Z,22.37
2022-10-07T10:04:50.448Z,22.36
2022-10-07T10:07:21.580Z,22.34
2022-10-07T10:09:51.141Z,22.31
2022-10-07T10:12:20.963Z,22.29
2022-10-07T10:14:51.771Z,22.28
2022-10-07T10:17:30.459Z,22.28
2022-10-07T10:20:31.288Z,22.26
2022-10-07T10:23:01.320Z,22.24
2022-10-07T10:26:01.557Z,22.24
2022-10-07T10:28:40.621Z,22.23
2022-10-07T10:31:22.160Z,22.23
2022-10-07T10:33:59.817Z,22.22
2022-10-07T10:36:34.262Z,22.20
2022-10-07T10:39:05.450Z,22.20
2022-10-07T10:41:41.465Z,22.21
2022-10-07T10:44:32.922Z,22.22
2022-10-07T10:47:08.856Z,22.23
2022-10-07T10:49:44.457Z,22.24
2022-10-07T10:52:35.487Z,22.23
2022-10-07T10:55:33.429Z,22.23
2022-10-07T10:58:13.307Z,22.23
2022-10-07T11:00:54.257Z,22.22
2022-10-07T11:03:44.899Z,22.22
2022-10-07T11:06:17.161Z,22.22
2022-10-07T11:08:48.508Z,22.22
2022-10-07T11:11:18.785Z,22.22
2022-10-07T11:13:54.528Z,22.22
2022-10-07T11:16:28.133Z,22.23
2022-10-07T11:19:00.968Z,22.24
2022-10-07T11:21:38.118Z,22.23
2022-10-07T11:24:15.362Z,22.24
2022-10-07T11:26:47.312Z,22.26
2022-10-07T11:29:25.392Z,22.24
2022-10-07T11:31:59.287Z,22.26
2022-10-07T11:34:36.796Z,22.27
2022-10-07T11:37:11.195Z,22.26
2022-10-07T11:39:41.149Z,22.26
2022-10-07T11:42:16.753Z,22.26
2022-10-07T11:44:54.714Z,22.25
2022-10-07T11:47:28.809Z,22.25
2022-10-07T11:50:04.706Z,22.24
2022-10-07T11:52:38.290Z,22.26
2022-10-07T11:55:11.805Z,22.27
2022-10-07T11:57:43.898Z,22.26
2022-10-07T12:00:26.320Z,22.26
2022-10-07T12:02:55.686Z,22.25
2022-10-07T12:05:57.688Z,22.23
2022-10-07T12:08:32.395Z,22.20
2022-10-07T12:11:41.296Z,22.23
2022-10-07T12:14:32.290Z,22.22
2022-10-07T12:17:12.179Z,22.24
2022-10-07T12:19:40.462Z,22.25
2022-10-07T12:22:20.941Z,22.26
2022-10-07T12:25:18.796Z,22.27
2022-10-07T12:27:51.293Z,22.28
2022-10-07T12:30:42.600Z,22.28
2022-10-07T12:33:26.547Z,22.27
2022-10-07T12:35:55.040Z,22.27
2022-10-07T12:38:26.309Z,22.26
2022-10-07T12:41:19.232Z,22.25
2022-10-07T12:44:00.263Z,22.25
2022-10-07T12:46:34.547Z,22.25
2022-10-07T12:49:07.831Z,22.26
2022-10-07T12:51:39.527Z,22.25
2022-10-07T12:54:16.005Z,22.23
2022-10-07T12:56:45.678Z,22.24
2022-10-07T12:59:48.142Z,22.24
2022-10-07T13:03:02.992Z,22.23
2022-10-07T13:06:07.671Z,22.23
2022-10-07T13:09:02.893Z,22.24
2022-10-07T13:12:24.275Z,22.26
2022-10-07T13:15:03.850Z,22.27
2022-10-07T13:17:45.531Z,22.27
2022-10-07T13:20:32.961Z,22.27
2022-10-07T13:23:08.172Z,22.27
2022-10-07T13:25:36.652Z,22.27
2022-10-07T13:28:05.757Z,22.25
2022-10-07T13:30:37.502Z,22.25
2022-10-07T13:33:28.231Z,22.24
2022-10-07T13:36:16.041Z,22.24
2022-10-07T13:38:46.417Z,22.23
2022-10-07T13:41:21.660Z,22.25
2022-10-07T13:43:54.358Z,22.31
2022-10-07T13:46:25.640Z,22.31
2022-10-07T13:48:57.188Z,22.31
2022-10-07T13:51:31.356Z,22.32
2022-10-07T13:54:01.703Z,22.31
2022-10-07T13:56:35.382Z,22.31
2022-10-07T13:59:06.890Z,22.31
2022-10-07T14:01:40.096Z,22.33
2022-10-07T14:04:25.324Z,22.34
2022-10-07T14:06:57.889Z,22.35
2022-10-07T14:09:36.492Z,22.35
2022-10-07T14:12:08.377Z,22.36
2022-10-07T14:14:39.524Z,22.35
2022-10-07T14:17:19.668Z,22.35
2022-10-07T14:19:55.065Z,22.34
2022-10-07T14:22:31.503Z,22.34
2022-10-07T14:25:02.849Z,22.36
2022-10-07T14:27:55.988Z,22.36
2022-10-07T14:30:56.360Z,22.33
2022-10-07T14:33:48.242Z,22.29
2022-10-07T14:36:19.569Z,22.28
2022-10-07T14:38:49.018Z,22.26
2022-10-07T14:41:18.292Z,22.25
2022-10-07T14:43:48.186Z,22.23
2022-10-07T14:46:19.515Z,22.23
2022-10-07T14:48:49.033Z,22.23
2022-10-07T14:51:20.221Z,22.23
2022-10-07T14:53:50.833Z,22.23
2022-10-07T14:56:25.400Z,22.24
2022-10-07T14:58:53.934Z,22.23
2022-10-07T15:01:22.301Z,22.23
2022-10-07T15:03:50.585Z,22.24
2022-10-07T15:06:21.774Z,22.28
2022-10-07T15:08:50.584Z,22.27
2022-10-07T15:11:20.606Z,22.26
2022-10-07T15:13:50.361Z,22.24
2022-10-07T15:16:20.387Z,22.23
2022-10-07T15:18:52.410Z,22.23
2022-10-07T15:21:23.616Z,22.23
2022-10-07T15:23:53.618Z,22.26
2022-10-07T15:26:24.753Z,22.26
2022-10-07T15:28:55.489Z,22.25
2022-10-07T15:31:24.842Z,22.26
2022-10-07T15:33:57.533Z,22.27
2022-10-07T15:36:29.211Z,22.27
2022-10-07T15:39:02.259Z,22.26
2022-10-07T15:41:35.637Z,22.27
2022-10-07T15:44:06.390Z,22.28
2022-10-07T15:46:35.113Z,22.29
2022-10-07T15:49:05.758Z,22.29
2022-10-07T15:51:36.593Z,22.28
2022-10-07T15:54:06.404Z,22.29
2022-10-07T15:56:34.792Z,22.29
2022-10-07T15:59:03.666Z,22.30
2022-10-07T16:01:32.910Z,22.33
2022-10-07T16:04:01.969Z,22.35
2022-10-07T16:06:32.791Z,22.36
2022-10-07T16:09:03.457Z,22.37
2022-10-07T16:11:33.334Z,22.37
2022-10-07T16:14:02.762Z,22.39
2022-10-07T16:16:32.508Z,22.37
2022-10-07T16:19:02.003Z,22.35
2022-10-07T16:21:31.050Z,22.37
2022-10-07T16:24:02.552Z,22.39
2022-10-07T16:26:34.501Z,22.38
2022-10-07T16:29:22.632Z,22.38
2022-10-07T16:31:57.161Z,22.38
2022-10-07T16:34:28.484Z,22.38
2022-10-07T16:36:58.362Z,22.38
2022-10-07T16:39:27.182Z,22.39
2022-10-07T16:41:57.015Z,22.38
2022-10-07T16:44:25.951Z,22.41
2022-10-07T16:46:57.040Z,22.42
2022-10-07T16:49:27.778Z,22.43
2022-10-07T16:51:56.571Z,22.41
2022-10-07T16:54:25.434Z,22.40
2022-10-07T16:56:54.145Z,22.40
2022-10-07T16:59:25.506Z,22.39
2022-10-07T17:01:56.111Z,22.39
2022-10-07T17:04:25.719Z,22.40
2022-10-07T17:06:54.376Z,22.39
2022-10-07T17:09:24.935Z,22.39
2022-10-07T17:11:53.614Z,22.39
2022-10-07T17:14:24.850Z,22.39
2022-10-07T17:16:54.917Z,22.38
2022-10-07T17:19:25.223Z,22.38
2022-10-07T17:21:55.220Z,22.39
2022-10-07T17:24:24.965Z,22.41
2022-10-07T17:26:53.896Z,22.43
2022-10-07T17:29:26.524Z,22.44
2022-10-07T17:31:55.325Z,22.44
2022-10-07T17:34:24.113Z,22.43
2022-10-07T17:36:52.484Z,22.42
2022-10-07T17:39:21.074Z,22.43
2022-10-07T17:41:49.812Z,22.43
2022-10-07T17:44:18.834Z,22.44
2022-10-07T17:46:49.253Z,22.44
2022-10-07T17:49:17.726Z,22.42
2022-10-07T17:51:46.066Z,22.41
2022-10-07T17:54:15.480Z,22.42
2022-10-07T17:56:45.765Z,22.40
2022-10-07T17:59:14.617Z,22.42
2022-10-07T18:01:43.415Z,22.41
2022-10-07T18:04:15.580Z,22.40
2022-10-07T18:06:47.057Z,22.40
2022-10-07T18:09:18.809Z,22.40
2022-10-07T18:12:04.487Z,22.39
2022-10-07T18:14:53.839Z,22.39
2022-10-07T18:17:23.162Z,22.38
2022-10-07T18:19:52.818Z,22.40
2022-10-07T18:22:21.262Z,22.39
2022-10-07T18:24:49.977Z,22.40
2022-10-07T18:27:18.225Z,22.41
2022-10-07T18:29:46.452Z,22.39
2022-10-07T18:32:14.692Z,22.39
2022-10-07T18:34:42.888Z,22.40
2022-10-07T18:37:12.547Z,22.44
2022-10-07T18:39:41.404Z,22.43
2022-10-07T18:42:09.593Z,22.42
2022-10-07T18:44:37.821Z,22.41
2022-10-07T18:47:06.146Z,22.40
2022-10-07T18:49:34.396Z,22.39
2022-10-07T18:52:03.528Z,22.39
2022-10-07T18:54:33.194Z,22.38
2022-10-07T18:57:01.349Z,22.39
2022-10-07T18:59:29.658Z,22.39
2022-10-07T19:01:57.906Z,22.38
2022-10-07T19:04:26.343Z,22.38
2022-10-07T19:06:54.503Z,22.38
2022-10-07T19:09:23.843Z,22.37
2022-10-07T19:11:53.459Z,22.37
2022-10-07T19:14:21.113Z,22.37
2022-10-07T19:16:50.254Z,22.36
2022-10-07T19:19:20.223Z,22.35
2022-10-07T19:21:51.504Z,22.35
2022-10-07T19:24:20.633Z,22.35
2022-10-07T19:26:50.503Z,22.35
2022-10-07T19:29:20.069Z,22.37
2022-10-07T19:31:50.170Z,22.37
2022-10-07T19:34:20.078Z,22.38
2022-10-07T19:36:49.099Z,22.33
2022-10-07T19:39:22.847Z,22.34
2022-10-07T19:41:51.415Z,22.33
2022-10-07T19:44:22.371Z,22.35
2022-10-07T19:46:52.510Z,22.38
2022-10-07T19:49:21.266Z,22.37
2022-10-07T19:51:49.442Z,22.33
2022-10-07T19:54:17.706Z,22.31
2022-10-07T19:56:47.307Z,22.30
2022-10-07T19:59:15.846Z,22.29
2022-10-07T20:01:47.613Z,22.29
2022-10-07T20:04:17.715Z,22.26
2022-10-07T20:06:46.155Z,22.27
2022-10-07T20:09:17.756Z,22.29
2022-10-07T20:11:46.938Z,22.27
2022-10-07T20:14:15.349Z,22.25
2022-10-07T20:16:45.213Z,22.25
2022-10-07T20:19:15.700Z,22.24
2022-10-07T20:21:44.063Z,22.23
2022-10-07T20:24:15.333Z,22.23
2022-10-07T20:26:44.145Z,22.23
2022-10-07T20:29:15.369Z,22.23
2022-10-07T20:31:45.864Z,22.22
2022-10-07T20:34:15.953Z,22.23
2022-10-07T20:36:44.690Z,22.24
2022-10-07T20:39:35.083Z,22.23
2022-10-07T20:42:21.172Z,22.23
2022-10-07T20:44:49.939Z,22.21
2022-10-07T20:47:21.500Z,22.22
2022-10-07T20:49:51.409Z,22.19
2022-10-07T20:52:21.764Z,22.20
2022-10-07T20:54:50.882Z,22.18
2022-10-07T20:57:21.509Z,22.17
2022-10-07T20:59:50.541Z,22.17
2022-10-07T21:02:23.739Z,22.18
2022-10-07T21:04:52.380Z,22.16
2022-10-07T21:07:20.644Z,22.16
2022-10-07T21:09:49.317Z,22.15
2022-10-07T21:12:18.856Z,22.14
2022-10-07T21:14:48.661Z,22.14
2022-10-07T21:17:17.380Z,22.16
2022-10-07T21:19:46.931Z,22.16
2022-10-07T21:22:15.198Z,22.16
2022-10-07T21:24:43.366Z,22.17
2022-10-07T21:27:11.640Z,22.17
2022-10-07T21:29:41.241Z,22.15
2022-10-07T21:32:10.682Z,22.16
2022-10-07T21:34:39.375Z,22.15
2022-10-07T21:37:08.970Z,22.13
2022-10-07T21:39:38.381Z,22.13
2022-10-07T21:42:06.438Z,22.14
2022-10-07T21:44:35.756Z,22.13
2022-10-07T21:47:05.160Z,22.13
2022-10-07T21:49:33.248Z,22.11
2022-10-07T21:52:01.541Z,22.11
2022-10-07T21:54:31.530Z,22.10
2022-10-07T21:56:59.732Z,22.11
2022-10-07T21:59:27.913Z,22.12
2022-10-07T22:01:56.814Z,22.13
2022-10-07T22:04:25.185Z,22.11
2022-10-07T22:07:10.464Z,22.12
2022-10-07T22:09:40.075Z,22.11
2022-10-07T22:12:08.955Z,22.11
2022-10-07T22:14:38.438Z,22.09
2022-10-07T22:17:06.645Z,22.09
2022-10-07T22:19:34.979Z,22.09
2022-10-07T22:22:03.450Z,22.09
2022-10-07T22:24:32.182Z,22.09
2022-10-07T22:27:03.550Z,22.09
2022-10-07T22:29:31.749Z,22.06
2022-10-07T22:32:00.001Z,22.08
2022-10-07T22:34:45.351Z,22.06
2022-10-07T22:37:13.611Z,22.08
2022-10-07T22:39:42.361Z,22.06
2022-10-07T22:42:12.037Z,22.06
2022-10-07T22:44:40.252Z,22.06
2022-10-07T22:47:08.475Z,22.07
2022-10-07T22:49:36.741Z,22.07
2022-10-07T22:52:04.969Z,22.07
2022-10-07T22:54:33.195Z,22.06
2022-10-07T22:57:01.398Z,22.06
2022-10-07T22:59:31.019Z,22.06
2022-10-07T23:01:59.266Z,22.05
2022-10-07T23:04:27.500Z,22.05
2022-10-07T23:06:55.727Z,22.05
2022-10-07T23:09:23.981Z,22.03
2022-10-07T23:11:52.258Z,22.05
2022-10-07T23:14:20.430Z,22.04
2022-10-07T23:16:50.004Z,22.04
2022-10-07T23:19:18.487Z,22.02
2022-10-07T23:21:47.894Z,22.01
2022-10-07T23:24:16.021Z,22.02
2022-10-07T23:26:46.190Z,22.01
2022-10-07T23:29:14.761Z,22.02
2022-10-07T23:31:44.880Z,22.03
2022-10-07T23:34:15.123Z,22.03
2022-10-07T23:36:43.663Z,22.01
2022-10-07T23:39:12.099Z,22.03
2022-10-07T23:41:40.698Z,22.03
2022-10-07T23:44:08.946Z,22.03
2022-10-07T23:46:37.269Z,22.01
2022-10-07T23:49:05.570Z,21.99
2022-10-07T23:51:35.426Z,22.00
2022-10-07T23:54:05.427Z,21.99
2022-10-07T23:56:34.228Z,21.98
2022-10-07T23:59:02.903Z,21.98
